sensor_id;sensor_type;location;lat;lon;timestamp;P1;durP1;ratioP1;P2;durP2;ratioP2
41627;SDS011;27321;50.816;6.054;2022-12-29T00:01:24;0.30;;;0.20;;
41627;SDS011;27321;50.816;6.054;2022-12-29T00:04:25;0.10;;;0.10;;
41627;SDS011;27321;50.816;6.054;2022-12-29T00:07:26;0.20;;;0.10;;
41627;SDS011;27321;50.816;6.054;2022-12-29T00:10:27;0.30;;;0.20;;
41627;SDS011;27321;50.816;6.054;2022-12-29T00:13:28;0.10;;;0.10;;
41627;SDS011;27321;50.816;6.054;2022-12-29T00:16:54;0.20;;;0.10;;
41627;SDS011;27321;50.816;6.054;2022-12-29T00:19:55;0.10;;;0.10;;
41627;SDS011;27321;50.816;6.054;2022-12-29T00:23:15;0.10;;;0.10;;
41627;SDS011;27321;50.816;6.054;2022-12-29T00:26:34;0.10;;;0.10;;
41627;SDS011;27321;50.816;6.054;2022-12-29T00:29:57;0.10;;;0.10;;
41627;SDS011;27321;50.816;6.054;2022-12-29T00:33:17;0.17;;;0.10;;
41627;SDS011;27321;50.816;6.054;2022-12-29T00:36:40;1.23;;;0.17;;
41627;SDS011;27321;50.816;6.054;2022-12-29T00:39:43;0.30;;;0.20;;
41627;SDS011;27321;50.816;6.054;2022-12-29T00:43:03;1.77;;;0.20;;
41627;SDS011;27321;50.816;6.054;2022-12-29T00:46:22;0.40;;;0.10;;
41627;SDS011;27321;50.816;6.054;2022-12-29T00:49:23;1.25;;;0.30;;
41627;SDS011;27321;50.816;6.054;2022-12-29T00:52:30;0.93;;;0.30;;
41627;SDS011;27321;50.816;6.054;2022-12-29T00:55:31;0.33;;;0.33;;
41627;SDS011;27321;50.816;6.054;2022-12-29T00:58:36;1.27;;;0.20;;
41627;SDS011;27321;50.816;6.054;2022-12-29T01:01:38;0.30;;;0.23;;
41627;SDS011;27321;50.816;6.054;2022-12-29T01:07:40;0.23;;;0.23;;
41627;SDS011;27321;50.816;6.054;2022-12-29T01:10:41;0.80;;;0.40;;
41627;SDS011;27321;50.816;6.054;2022-12-29T01:13:42;0.40;;;0.25;;
41627;SDS011;27321;50.816;6.054;2022-12-29T01:16:45;0.20;;;0.20;;
41627;SDS011;27321;50.816;6.054;2022-12-29T01:19:46;2.40;;;0.47;;
41627;SDS011;27321;50.816;6.054;2022-12-29T01:22:47;1.07;;;0.40;;
41627;SDS011;27321;50.816;6.054;2022-12-29T01:25:48;0.40;;;0.40;;
41627;SDS011;27321;50.816;6.054;2022-12-29T01:28:49;1.48;;;0.63;;
41627;SDS011;27321;50.816;6.054;2022-12-29T01:31:50;1.02;;;0.65;;
41627;SDS011;27321;50.816;6.054;2022-12-29T01:34:51;1.38;;;0.45;;
41627;SDS011;27321;50.816;6.054;2022-12-29T01:37:53;0.50;;;0.50;;
41627;SDS011;27321;50.816;6.054;2022-12-29T01:40:54;0.30;;;0.30;;
41627;SDS011;27321;50.816;6.054;2022-12-29T01:43:56;1.33;;;0.53;;
41627;SDS011;27321;50.816;6.054;2022-12-29T01:47:02;2.10;;;0.40;;
41627;SDS011;27321;50.816;6.054;2022-12-29T01:50:08;1.25;;;0.52;;
41627;SDS011;27321;50.816;6.054;2022-12-29T01:53:18;1.23;;;0.43;;
41627;SDS011;27321;50.816;6.054;2022-12-29T01:56:25;0.73;;;0.60;;
41627;SDS011;27321;50.816;6.054;2022-12-29T01:59:27;0.77;;;0.50;;
41627;SDS011;27321;50.816;6.054;2022-12-29T02:02:36;3.17;;;0.60;;
41627;SDS011;27321;50.816;6.054;2022-12-29T02:05:48;1.55;;;0.70;;
41627;SDS011;27321;50.816;6.054;2022-12-29T02:09:25;0.30;;;0.30;;
41627;SDS011;27321;50.816;6.054;2022-12-29T02:12:26;1.15;;;0.57;;
41627;SDS011;27321;50.816;6.054;2022-12-29T02:15:35;1.58;;;0.40;;
41627;SDS011;27321;50.816;6.054;2022-12-29T02:36:46;0.30;;;0.27;;
41627;SDS011;27321;50.816;6.054;2022-12-29T02:47:27;0.83;;;0.40;;
41627;SDS011;27321;50.816;6.054;2022-12-29T02:50:55;0.30;;;0.30;;
41627;SDS011;27321;50.816;6.054;2022-12-29T02:54:04;0.67;;;0.30;;
41627;SDS011;27321;50.816;6.054;2022-12-29T03:00:25;0.40;;;0.30;;
41627;SDS011;27321;50.816;6.054;2022-12-29T03:10:01;0.30;;;0.20;;
41627;SDS011;27321;50.816;6.054;2022-12-29T03:17:10;0.50;;;0.40;;
41627;SDS011;27321;50.816;6.054;2022-12-29T03:20:30;2.63;;;0.40;;
41627;SDS011;27321;50.816;6.054;2022-12-29T03:23:40;1.33;;;0.40;;
41627;SDS011;27321;50.816;6.054;2022-12-29T03:26:44;1.23;;;0.40;;
41627;SDS011;27321;50.816;6.054;2022-12-29T03:29:52;2.27;;;0.50;;
41627;SDS011;27321;50.816;6.054;2022-12-29T03:33:01;0.70;;;0.30;;
41627;SDS011;27321;50.816;6.054;2022-12-29T03:36:07;0.60;;;0.40;;
41627;SDS011;27321;50.816;6.054;2022-12-29T03:39:14;0.73;;;0.20;;
41627;SDS011;27321;50.816;6.054;2022-12-29T03:42:18;0.77;;;0.37;;
41627;SDS011;27321;50.816;6.054;2022-12-29T03:45:22;1.17;;;0.20;;
41627;SDS011;27321;50.816;6.054;2022-12-29T03:48:23;0.63;;;0.43;;
41627;SDS011;27321;50.816;6.054;2022-12-29T03:51:25;0.40;;;0.40;;
41627;SDS011;27321;50.816;6.054;2022-12-29T03:54:28;0.70;;;0.40;;
41627;SDS011;27321;50.816;6.054;2022-12-29T03:57:29;1.27;;;0.60;;
41627;SDS011;27321;50.816;6.054;2022-12-29T04:00:35;0.47;;;0.40;;
41627;SDS011;27321;50.816;6.054;2022-12-29T04:03:36;3.72;;;0.50;;
41627;SDS011;27321;50.816;6.054;2022-12-29T04:06:38;0.33;;;0.30;;
41627;SDS011;27321;50.816;6.054;2022-12-29T04:09:42;1.77;;;0.60;;
41627;SDS011;27321;50.816;6.054;2022-12-29T04:12:47;0.90;;;0.40;;
41627;SDS011;27321;50.816;6.054;2022-12-29T04:15:48;1.00;;;0.45;;
41627;SDS011;27321;50.816;6.054;2022-12-29T04:18:49;1.10;;;0.50;;
41627;SDS011;27321;50.816;6.054;2022-12-29T04:21:50;1.37;;;0.60;;
41627;SDS011;27321;50.816;6.054;2022-12-29T04:24:52;1.00;;;0.50;;
41627;SDS011;27321;50.816;6.054;2022-12-29T04:27:55;1.37;;;0.50;;
41627;SDS011;27321;50.816;6.054;2022-12-29T04:31:19;1.13;;;0.70;;
41627;SDS011;27321;50.816;6.054;2022-12-29T04:34:20;0.75;;;0.52;;
41627;SDS011;27321;50.816;6.054;2022-12-29T04:37:22;0.73;;;0.50;;
41627;SDS011;27321;50.816;6.054;2022-12-29T04:40:23;0.45;;;0.40;;
41627;SDS011;27321;50.816;6.054;2022-12-29T04:43:24;1.33;;;0.60;;
41627;SDS011;27321;50.816;6.054;2022-12-29T04:46:37;1.63;;;0.40;;
41627;SDS011;27321;50.816;6.054;2022-12-29T04:49:43;3.43;;;0.60;;
41627;SDS011;27321;50.816;6.054;2022-12-29T04:52:56;1.33;;;0.50;;
41627;SDS011;27321;50.816;6.054;2022-12-29T04:55:58;0.57;;;0.30;;
41627;SDS011;27321;50.816;6.054;2022-12-29T04:58:59;3.47;;;0.50;;
41627;SDS011;27321;50.816;6.054;2022-12-29T05:02:00;0.80;;;0.50;;
41627;SDS011;27321;50.816;6.054;2022-12-29T05:05:01;2.70;;;0.50;;
41627;SDS011;27321;50.816;6.054;2022-12-29T05:08:05;1.80;;;0.40;;
41627;SDS011;27321;50.816;6.054;2022-12-29T05:11:06;1.52;;;0.43;;
41627;SDS011;27321;50.816;6.054;2022-12-29T05:14:07;0.90;;;0.40;;
41627;SDS011;27321;50.816;6.054;2022-12-29T05:20:09;1.50;;;0.50;;
41627;SDS011;27321;50.816;6.054;2022-12-29T05:23:11;2.63;;;0.50;;
41627;SDS011;27321;50.816;6.054;2022-12-29T05:26:13;1.00;;;0.50;;
41627;SDS011;27321;50.816;6.054;2022-12-29T05:29:32;0.23;;;0.23;;
41627;SDS011;27321;50.816;6.054;2022-12-29T05:32:33;1.25;;;0.38;;
41627;SDS011;27321;50.816;6.054;2022-12-29T05:35:35;0.77;;;0.40;;
41627;SDS011;27321;50.816;6.054;2022-12-29T05:38:36;5.68;;;0.73;;
41627;SDS011;27321;50.816;6.054;2022-12-29T05:41:37;0.50;;;0.33;;
41627;SDS011;27321;50.816;6.054;2022-12-29T05:44:41;1.83;;;0.47;;
41627;SDS011;27321;50.816;6.054;2022-12-29T05:47:50;1.77;;;0.40;;
41627;SDS011;27321;50.816;6.054;2022-12-29T05:51:09;2.13;;;0.30;;
41627;SDS011;27321;50.816;6.054;2022-12-29T05:54:22;0.90;;;0.23;;
41627;SDS011;27321;50.816;6.054;2022-12-29T05:57:23;3.63;;;0.40;;
41627;SDS011;27321;50.816;6.054;2022-12-29T06:00:33;1.33;;;0.40;;
41627;SDS011;27321;50.816;6.054;2022-12-29T06:03:34;0.60;;;0.40;;
41627;SDS011;27321;50.816;6.054;2022-12-29T06:06:35;1.95;;;0.47;;
41627;SDS011;27321;50.816;6.054;2022-12-29T06:09:37;1.33;;;0.43;;
41627;SDS011;27321;50.816;6.054;2022-12-29T06:12:39;1.85;;;0.50;;
41627;SDS011;27321;50.816;6.054;2022-12-29T06:15:40;1.45;;;0.40;;
41627;SDS011;27321;50.816;6.054;2022-12-29T06:21:47;0.93;;;0.57;;
41627;SDS011;27321;50.816;6.054;2022-12-29T06:24:48;1.33;;;0.50;;
41627;SDS011;27321;50.816;6.054;2022-12-29T06:27:50;0.70;;;0.33;;
41627;SDS011;27321;50.816;6.054;2022-12-29T06:30:51;3.95;;;0.70;;
41627;SDS011;27321;50.816;6.054;2022-12-29T06:33:52;3.10;;;0.52;;
41627;SDS011;27321;50.816;6.054;2022-12-29T06:36:53;1.27;;;0.47;;
41627;SDS011;27321;50.816;6.054;2022-12-29T06:39:54;3.60;;;0.63;;
41627;SDS011;27321;50.816;6.054;2022-12-29T06:42:59;3.97;;;0.60;;
41627;SDS011;27321;50.816;6.054;2022-12-29T06:46:19;1.30;;;0.40;;
41627;SDS011;27321;50.816;6.054;2022-12-29T06:49:20;1.80;;;0.47;;
41627;SDS011;27321;50.816;6.054;2022-12-29T06:52:21;1.17;;;0.52;;
41627;SDS011;27321;50.816;6.054;2022-12-29T06:55:24;1.00;;;0.53;;
41627;SDS011;27321;50.816;6.054;2022-12-29T06:58:25;2.00;;;0.30;;
41627;SDS011;27321;50.816;6.054;2022-12-29T07:01:26;0.50;;;0.40;;
41627;SDS011;27321;50.816;6.054;2022-12-29T07:04:28;2.05;;;0.57;;
41627;SDS011;27321;50.816;6.054;2022-12-29T07:10:30;2.90;;;0.70;;
41627;SDS011;27321;50.816;6.054;2022-12-29T07:13:31;2.20;;;0.60;;
41627;SDS011;27321;50.816;6.054;2022-12-29T07:16:32;1.50;;;0.67;;
41627;SDS011;27321;50.816;6.054;2022-12-29T07:19:34;1.93;;;0.60;;
41627;SDS011;27321;50.816;6.054;2022-12-29T07:22:35;3.83;;;0.80;;
41627;SDS011;27321;50.816;6.054;2022-12-29T07:25:36;3.90;;;0.60;;
41627;SDS011;27321;50.816;6.054;2022-12-29T07:28:37;2.53;;;0.60;;
41627;SDS011;27321;50.816;6.054;2022-12-29T07:31:38;2.90;;;0.80;;
41627;SDS011;27321;50.816;6.054;2022-12-29T07:34:39;2.03;;;0.67;;
41627;SDS011;27321;50.816;6.054;2022-12-29T07:37:40;1.27;;;0.50;;
41627;SDS011;27321;50.816;6.054;2022-12-29T07:40:41;3.37;;;0.80;;
41627;SDS011;27321;50.816;6.054;2022-12-29T07:43:46;4.50;;;1.00;;
41627;SDS011;27321;50.816;6.054;2022-12-29T07:47:07;3.10;;;0.70;;
41627;SDS011;27321;50.816;6.054;2022-12-29T07:50:08;4.23;;;0.60;;
41627;SDS011;27321;50.816;6.054;2022-12-29T07:53:09;2.10;;;0.50;;
41627;SDS011;27321;50.816;6.054;2022-12-29T07:56:10;3.35;;;0.65;;
41627;SDS011;27321;50.816;6.054;2022-12-29T07:59:11;5.03;;;0.80;;
41627;SDS011;27321;50.816;6.054;2022-12-29T08:02:12;2.07;;;0.97;;
41627;SDS011;27321;50.816;6.054;2022-12-29T08:05:13;5.77;;;1.13;;
41627;SDS011;27321;50.816;6.054;2022-12-29T08:08:15;6.20;;;0.80;;
41627;SDS011;27321;50.816;6.054;2022-12-29T08:11:16;4.07;;;0.70;;
41627;SDS011;27321;50.816;6.054;2022-12-29T08:14:17;1.70;;;0.68;;
41627;SDS011;27321;50.816;6.054;2022-12-29T08:17:18;3.03;;;0.60;;
41627;SDS011;27321;50.816;6.054;2022-12-29T08:20:19;4.63;;;0.80;;
41627;SDS011;27321;50.816;6.054;2022-12-29T08:23:20;1.80;;;0.88;;
41627;SDS011;27321;50.816;6.054;2022-12-29T08:26:21;2.53;;;0.63;;
41627;SDS011;27321;50.816;6.054;2022-12-29T08:29:22;3.15;;;0.82;;
41627;SDS011;27321;50.816;6.054;2022-12-29T08:32:23;2.88;;;0.70;;
41627;SDS011;27321;50.816;6.054;2022-12-29T08:35:24;2.08;;;0.75;;
41627;SDS011;27321;50.816;6.054;2022-12-29T08:38:26;2.53;;;0.87;;
41627;SDS011;27321;50.816;6.054;2022-12-29T08:41:29;4.20;;;0.97;;
41627;SDS011;27321;50.816;6.054;2022-12-29T08:44:30;3.27;;;0.70;;
41627;SDS011;27321;50.816;6.054;2022-12-29T08:47:31;7.78;;;0.90;;
41627;SDS011;27321;50.816;6.054;2022-12-29T08:50:32;4.90;;;0.93;;
41627;SDS011;27321;50.816;6.054;2022-12-29T08:53:33;3.97;;;1.02;;
41627;SDS011;27321;50.816;6.054;2022-12-29T08:56:35;3.13;;;0.97;;
41627;SDS011;27321;50.816;6.054;2022-12-29T08:59:37;3.03;;;0.50;;
41627;SDS011;27321;50.816;6.054;2022-12-29T09:02:39;4.78;;;1.08;;
41627;SDS011;27321;50.816;6.054;2022-12-29T09:05:39;6.97;;;1.13;;
41627;SDS011;27321;50.816;6.054;2022-12-29T09:08:40;3.37;;;1.00;;
41627;SDS011;27321;50.816;6.054;2022-12-29T09:11:41;2.60;;;0.70;;
41627;SDS011;27321;50.816;6.054;2022-12-29T09:14:45;4.23;;;1.13;;
41627;SDS011;27321;50.816;6.054;2022-12-29T09:17:47;3.27;;;0.90;;
41627;SDS011;27321;50.816;6.054;2022-12-29T09:20:47;5.63;;;1.07;;
41627;SDS011;27321;50.816;6.054;2022-12-29T09:23:48;4.57;;;1.27;;
41627;SDS011;27321;50.816;6.054;2022-12-29T09:26:49;2.83;;;0.57;;
41627;SDS011;27321;50.816;6.054;2022-12-29T09:29:50;3.53;;;1.17;;
41627;SDS011;27321;50.816;6.054;2022-12-29T09:32:51;2.13;;;0.90;;
41627;SDS011;27321;50.816;6.054;2022-12-29T09:35:56;3.53;;;0.90;;
41627;SDS011;27321;50.816;6.054;2022-12-29T09:38:58;4.17;;;1.20;;
41627;SDS011;27321;50.816;6.054;2022-12-29T09:49:33;5.43;;;1.00;;
41627;SDS011;27321;50.816;6.054;2022-12-29T09:56:23;4.00;;;0.97;;
41627;SDS011;27321;50.816;6.054;2022-12-29T09:59:36;2.23;;;0.87;;
41627;SDS011;27321;50.816;6.054;2022-12-29T10:02:52;5.03;;;1.07;;
41627;SDS011;27321;50.816;6.054;2022-12-29T10:06:14;4.70;;;1.50;;
41627;SDS011;27321;50.816;6.054;2022-12-29T10:10:06;4.33;;;1.20;;
41627;SDS011;27321;50.816;6.054;2022-12-29T10:13:56;3.07;;;1.00;;
41627;SDS011;27321;50.816;6.054;2022-12-29T10:17:26;2.47;;;0.77;;
41627;SDS011;27321;50.816;6.054;2022-12-29T10:20:49;3.13;;;1.03;;
41627;SDS011;27321;50.816;6.054;2022-12-29T10:24:13;4.20;;;0.90;;
41627;SDS011;27321;50.816;6.054;2022-12-29T10:27:15;5.18;;;1.00;;
41627;SDS011;27321;50.816;6.054;2022-12-29T10:30:17;5.67;;;1.10;;
41627;SDS011;27321;50.816;6.054;2022-12-29T10:33:20;4.15;;;1.08;;
41627;SDS011;27321;50.816;6.054;2022-12-29T10:36:35;3.57;;;0.70;;
41627;SDS011;27321;50.816;6.054;2022-12-29T10:39:52;4.40;;;1.20;;
41627;SDS011;27321;50.816;6.054;2022-12-29T10:42:55;10.67;;;1.43;;
41627;SDS011;27321;50.816;6.054;2022-12-29T10:45:59;4.63;;;1.13;;
41627;SDS011;27321;50.816;6.054;2022-12-29T10:49:06;3.90;;;1.10;;
41627;SDS011;27321;50.816;6.054;2022-12-29T10:52:19;6.30;;;1.10;;
41627;SDS011;27321;50.816;6.054;2022-12-29T10:55:24;7.67;;;1.40;;
41627;SDS011;27321;50.816;6.054;2022-12-29T10:58:30;6.63;;;1.30;;
41627;SDS011;27321;50.816;6.054;2022-12-29T11:01:34;3.83;;;0.90;;
41627;SDS011;27321;50.816;6.054;2022-12-29T11:08:10;3.57;;;0.77;;
41627;SDS011;27321;50.816;6.054;2022-12-29T11:11:22;2.57;;;1.00;;
41627;SDS011;27321;50.816;6.054;2022-12-29T11:14:30;7.50;;;0.97;;
41627;SDS011;27321;50.816;6.054;2022-12-29T11:17:37;3.23;;;1.10;;
41627;SDS011;27321;50.816;6.054;2022-12-29T11:20:49;3.23;;;1.10;;
41627;SDS011;27321;50.816;6.054;2022-12-29T11:24:03;4.43;;;1.10;;
41627;SDS011;27321;50.816;6.054;2022-12-29T11:27:21;7.93;;;1.20;;
41627;SDS011;27321;50.816;6.054;2022-12-29T11:30:27;5.33;;;1.33;;
41627;SDS011;27321;50.816;6.054;2022-12-29T11:33:31;6.17;;;1.20;;
41627;SDS011;27321;50.816;6.054;2022-12-29T11:36:37;3.57;;;0.97;;
41627;SDS011;27321;50.816;6.054;2022-12-29T11:39:50;4.87;;;1.10;;
41627;SDS011;27321;50.816;6.054;2022-12-29T11:43:03;4.23;;;0.80;;
41627;SDS011;27321;50.816;6.054;2022-12-29T11:46:05;3.25;;;1.27;;
41627;SDS011;27321;50.816;6.054;2022-12-29T11:49:08;6.50;;;1.70;;
41627;SDS011;27321;50.816;6.054;2022-12-29T11:52:22;6.60;;;1.20;;
41627;SDS011;27321;50.816;6.054;2022-12-29T11:55:26;7.57;;;1.20;;
41627;SDS011;27321;50.816;6.054;2022-12-29T11:58:29;4.17;;;1.00;;
41627;SDS011;27321;50.816;6.054;2022-12-29T12:01:38;3.80;;;0.80;;
41627;SDS011;27321;50.816;6.054;2022-12-29T12:04:40;3.40;;;1.00;;
41627;SDS011;27321;50.816;6.054;2022-12-29T12:07:45;5.03;;;1.20;;
41627;SDS011;27321;50.816;6.054;2022-12-29T12:18:24;4.83;;;1.03;;
41627;SDS011;27321;50.816;6.054;2022-12-29T12:21:38;3.37;;;1.00;;
41627;SDS011;27321;50.816;6.054;2022-12-29T12:24:47;6.75;;;1.30;;
41627;SDS011;27321;50.816;6.054;2022-12-29T12:28:08;3.80;;;1.00;;
41627;SDS011;27321;50.816;6.054;2022-12-29T12:34:28;4.50;;;1.30;;
41627;SDS011;27321;50.816;6.054;2022-12-29T12:37:43;5.20;;;0.90;;
41627;SDS011;27321;50.816;6.054;2022-12-29T12:41:11;3.33;;;0.83;;
41627;SDS011;27321;50.816;6.054;2022-12-29T12:44:36;4.10;;;0.77;;
41627;SDS011;27321;50.816;6.054;2022-12-29T12:48:16;3.97;;;0.93;;
41627;SDS011;27321;50.816;6.054;2022-12-29T12:52:06;4.32;;;0.98;;
41627;SDS011;27321;50.816;6.054;2022-12-29T12:59:03;3.55;;;0.93;;
41627;SDS011;27321;50.816;6.054;2022-12-29T13:20:47;4.27;;;1.03;;
41627;SDS011;27321;50.816;6.054;2022-12-29T13:23:48;2.17;;;0.47;;
41627;SDS011;27321;50.816;6.054;2022-12-29T13:27:29;3.73;;;0.53;;
41627;SDS011;27321;50.816;6.054;2022-12-29T13:31:04;2.70;;;0.70;;
41627;SDS011;27321;50.816;6.054;2022-12-29T13:34:21;2.97;;;0.80;;
41627;SDS011;27321;50.816;6.054;2022-12-29T13:38:09;3.33;;;0.70;;
41627;SDS011;27321;50.816;6.054;2022-12-29T13:41:21;3.27;;;0.97;;
41627;SDS011;27321;50.816;6.054;2022-12-29T13:44:59;2.30;;;0.83;;
41627;SDS011;27321;50.816;6.054;2022-12-29T13:48:21;2.80;;;0.60;;
41627;SDS011;27321;50.816;6.054;2022-12-29T13:51:31;1.90;;;0.70;;
41627;SDS011;27321;50.816;6.054;2022-12-29T13:57:53;1.75;;;0.63;;
41627;SDS011;27321;50.816;6.054;2022-12-29T14:01:17;2.73;;;0.80;;
41627;SDS011;27321;50.816;6.054;2022-12-29T14:04:31;4.60;;;0.73;;
41627;SDS011;27321;50.816;6.054;2022-12-29T14:07:38;5.37;;;1.00;;
41627;SDS011;27321;50.816;6.054;2022-12-29T14:10:50;5.73;;;0.87;;
41627;SDS011;27321;50.816;6.054;2022-12-29T14:13:52;2.23;;;0.70;;
41627;SDS011;27321;50.816;6.054;2022-12-29T14:16:53;3.17;;;0.77;;
41627;SDS011;27321;50.816;6.054;2022-12-29T14:19:54;3.22;;;0.70;;
41627;SDS011;27321;50.816;6.054;2022-12-29T14:23:00;4.38;;;1.25;;
41627;SDS011;27321;50.816;6.054;2022-12-29T14:35:37;2.23;;;0.77;;
41627;SDS011;27321;50.816;6.054;2022-12-29T14:38:44;4.27;;;1.40;;
41627;SDS011;27321;50.816;6.054;2022-12-29T14:41:46;2.10;;;0.80;;
41627;SDS011;27321;50.816;6.054;2022-12-29T14:51:42;3.47;;;1.17;;
41627;SDS011;27321;50.816;6.054;2022-12-29T14:54:48;4.13;;;0.90;;
41627;SDS011;27321;50.816;6.054;2022-12-29T14:57:59;6.72;;;1.30;;
41627;SDS011;27321;50.816;6.054;2022-12-29T15:01:02;5.70;;;1.30;;
41627;SDS011;27321;50.816;6.054;2022-12-29T15:04:27;4.57;;;1.08;;
41627;SDS011;27321;50.816;6.054;2022-12-29T15:07:31;7.53;;;1.30;;
41627;SDS011;27321;50.816;6.054;2022-12-29T15:10:47;3.93;;;1.30;;
41627;SDS011;27321;50.816;6.054;2022-12-29T15:13:54;4.83;;;1.20;;
41627;SDS011;27321;50.816;6.054;2022-12-29T15:16:55;4.88;;;1.10;;
41627;SDS011;27321;50.816;6.054;2022-12-29T15:19:57;4.88;;;1.23;;
41627;SDS011;27321;50.816;6.054;2022-12-29T15:23:00;7.67;;;1.50;;
41627;SDS011;27321;50.816;6.054;2022-12-29T15:26:10;4.83;;;0.83;;
41627;SDS011;27321;50.816;6.054;2022-12-29T15:32:45;3.23;;;0.90;;
41627;SDS011;27321;50.816;6.054;2022-12-29T15:35:51;4.73;;;1.13;;
41627;SDS011;27321;50.816;6.054;2022-12-29T15:38:55;5.60;;;1.43;;
41627;SDS011;27321;50.816;6.054;2022-12-29T15:42:00;3.57;;;0.93;;
41627;SDS011;27321;50.816;6.054;2022-12-29T15:45:10;5.17;;;1.27;;
41627;SDS011;27321;50.816;6.054;2022-12-29T15:48:15;4.17;;;0.83;;
41627;SDS011;27321;50.816;6.054;2022-12-29T15:51:32;3.70;;;1.00;;
41627;SDS011;27321;50.816;6.054;2022-12-29T15:54:37;3.97;;;1.27;;
41627;SDS011;27321;50.816;6.054;2022-12-29T15:57:42;3.05;;;1.27;;
41627;SDS011;27321;50.816;6.054;2022-12-29T16:00:46;4.87;;;1.50;;
41627;SDS011;27321;50.816;6.054;2022-12-29T16:03:53;6.17;;;1.47;;
41627;SDS011;27321;50.816;6.054;2022-12-29T16:07:02;5.18;;;1.60;;
41627;SDS011;27321;50.816;6.054;2022-12-29T16:10:22;3.67;;;1.00;;
41627;SDS011;27321;50.816;6.054;2022-12-29T16:13:40;6.73;;;1.50;;
41627;SDS011;27321;50.816;6.054;2022-12-29T16:16:42;4.07;;;1.20;;
41627;SDS011;27321;50.816;6.054;2022-12-29T16:19:52;8.17;;;1.77;;
41627;SDS011;27321;50.816;6.054;2022-12-29T16:22:56;8.02;;;1.50;;
41627;SDS011;27321;50.816;6.054;2022-12-29T16:25:59;6.37;;;1.63;;
41627;SDS011;27321;50.816;6.054;2022-12-29T16:29:01;6.77;;;1.63;;
41627;SDS011;27321;50.816;6.054;2022-12-29T16:32:22;7.23;;;1.57;;
41627;SDS011;27321;50.816;6.054;2022-12-29T16:35:44;4.80;;;1.33;;
41627;SDS011;27321;50.816;6.054;2022-12-29T16:38:46;4.93;;;1.60;;
41627;SDS011;27321;50.816;6.054;2022-12-29T16:41:47;7.50;;;1.93;;
41627;SDS011;27321;50.816;6.054;2022-12-29T16:44:50;5.27;;;1.67;;
41627;SDS011;27321;50.816;6.054;2022-12-29T16:48:11;6.23;;;1.67;;
41627;SDS011;27321;50.816;6.054;2022-12-29T16:51:28;4.70;;;1.20;;
41627;SDS011;27321;50.816;6.054;2022-12-29T16:54:35;6.13;;;1.70;;
41627;SDS011;27321;50.816;6.054;2022-12-29T16:57:37;5.80;;;1.80;;
41627;SDS011;27321;50.816;6.054;2022-12-29T17:00:38;7.23;;;1.80;;
41627;SDS011;27321;50.816;6.054;2022-12-29T17:03:39;5.65;;;1.73;;
41627;SDS011;27321;50.816;6.054;2022-12-29T17:06:46;7.97;;;2.20;;
41627;SDS011;27321;50.816;6.054;2022-12-29T17:09:47;6.95;;;1.75;;
41627;SDS011;27321;50.816;6.054;2022-12-29T17:12:49;4.47;;;1.70;;
41627;SDS011;27321;50.816;6.054;2022-12-29T17:15:50;5.00;;;1.35;;
41627;SDS011;27321;50.816;6.054;2022-12-29T17:18:51;7.10;;;1.70;;
41627;SDS011;27321;50.816;6.054;2022-12-29T17:21:54;12.13;;;2.60;;
41627;SDS011;27321;50.816;6.054;2022-12-29T17:24:57;8.18;;;1.48;;
41627;SDS011;27321;50.816;6.054;2022-12-29T17:28:04;5.80;;;1.80;;
41627;SDS011;27321;50.816;6.054;2022-12-29T17:34:29;8.07;;;1.77;;
41627;SDS011;27321;50.816;6.054;2022-12-29T17:37:38;10.10;;;2.27;;
41627;SDS011;27321;50.816;6.054;2022-12-29T17:41:11;11.15;;;2.10;;
41627;SDS011;27321;50.816;6.054;2022-12-29T17:44:18;8.07;;;1.87;;
41627;SDS011;27321;50.816;6.054;2022-12-29T17:47:24;6.27;;;1.70;;
41627;SDS011;27321;50.816;6.054;2022-12-29T17:50:43;6.63;;;1.80;;
41627;SDS011;27321;50.816;6.054;2022-12-29T17:53:49;9.30;;;2.17;;
41627;SDS011;27321;50.816;6.054;2022-12-29T17:56:51;6.67;;;1.67;;
41627;SDS011;27321;50.816;6.054;2022-12-29T17:59:58;9.47;;;1.80;;
41627;SDS011;27321;50.816;6.054;2022-12-29T18:03:00;7.00;;;1.60;;
41627;SDS011;27321;50.816;6.054;2022-12-29T18:06:02;11.27;;;2.13;;
41627;SDS011;27321;50.816;6.054;2022-12-29T18:09:14;6.93;;;1.63;;
41627;SDS011;27321;50.816;6.054;2022-12-29T18:12:38;6.77;;;2.00;;
41627;SDS011;27321;50.816;6.054;2022-12-29T18:15:58;10.83;;;1.70;;
41627;SDS011;27321;50.816;6.054;2022-12-29T18:19:25;5.97;;;1.67;;
41627;SDS011;27321;50.816;6.054;2022-12-29T18:22:52;7.73;;;1.47;;
41627;SDS011;27321;50.816;6.054;2022-12-29T18:26:04;3.20;;;1.17;;
41627;SDS011;27321;50.816;6.054;2022-12-29T18:29:36;5.20;;;1.77;;
41627;SDS011;27321;50.816;6.054;2022-12-29T18:33:02;5.40;;;1.33;;
41627;SDS011;27321;50.816;6.054;2022-12-29T18:36:31;5.13;;;1.50;;
41627;SDS011;27321;50.816;6.054;2022-12-29T18:39:45;2.43;;;1.00;;
41627;SDS011;27321;50.816;6.054;2022-12-29T18:43:34;7.60;;;1.73;;
41627;SDS011;27321;50.816;6.054;2022-12-29T18:46:45;5.60;;;1.50;;
41627;SDS011;27321;50.816;6.054;2022-12-29T18:49:50;2.97;;;1.23;;
41627;SDS011;27321;50.816;6.054;2022-12-29T18:52:56;3.67;;;1.00;;
41627;SDS011;27321;50.816;6.054;2022-12-29T18:56:15;4.27;;;1.37;;
41627;SDS011;27321;50.816;6.054;2022-12-29T18:59:36;8.30;;;1.67;;
41627;SDS011;27321;50.816;6.054;2022-12-29T19:02:51;4.78;;;1.27;;
41627;SDS011;27321;50.816;6.054;2022-12-29T19:06:09;7.70;;;1.60;;
41627;SDS011;27321;50.816;6.054;2022-12-29T19:09:32;10.60;;;2.10;;
41627;SDS011;27321;50.816;6.054;2022-12-29T19:12:49;4.30;;;1.47;;
41627;SDS011;27321;50.816;6.054;2022-12-29T19:16:09;4.17;;;1.40;;
41627;SDS011;27321;50.816;6.054;2022-12-29T19:19:40;5.73;;;1.70;;
41627;SDS011;27321;50.816;6.054;2022-12-29T19:22:51;6.73;;;1.40;;
41627;SDS011;27321;50.816;6.054;2022-12-29T19:26:25;9.07;;;1.67;;
41627;SDS011;27321;50.816;6.054;2022-12-29T19:29:30;5.07;;;1.40;;
41627;SDS011;27321;50.816;6.054;2022-12-29T19:32:35;4.73;;;1.60;;
41627;SDS011;27321;50.816;6.054;2022-12-29T19:35:42;5.80;;;1.60;;
41627;SDS011;27321;50.816;6.054;2022-12-29T19:38:56;6.50;;;1.70;;
41627;SDS011;27321;50.816;6.054;2022-12-29T19:42:05;5.60;;;1.60;;
41627;SDS011;27321;50.816;6.054;2022-12-29T19:45:22;8.37;;;1.87;;
41627;SDS011;27321;50.816;6.054;2022-12-29T19:48:30;7.53;;;2.13;;
41627;SDS011;27321;50.816;6.054;2022-12-29T19:51:37;4.77;;;1.40;;
41627;SDS011;27321;50.816;6.054;2022-12-29T19:54:39;6.90;;;1.70;;
41627;SDS011;27321;50.816;6.054;2022-12-29T19:57:46;6.43;;;2.00;;
41627;SDS011;27321;50.816;6.054;2022-12-29T20:00:47;7.30;;;1.88;;
41627;SDS011;27321;50.816;6.054;2022-12-29T20:03:50;6.40;;;1.80;;
41627;SDS011;27321;50.816;6.054;2022-12-29T20:06:55;8.90;;;1.63;;
41627;SDS011;27321;50.816;6.054;2022-12-29T20:09:56;7.63;;;2.00;;
41627;SDS011;27321;50.816;6.054;2022-12-29T20:13:06;3.83;;;1.40;;
41627;SDS011;27321;50.816;6.054;2022-12-29T20:16:09;8.43;;;1.60;;
41627;SDS011;27321;50.816;6.054;2022-12-29T20:19:15;6.13;;;1.63;;
41627;SDS011;27321;50.816;6.054;2022-12-29T20:22:16;5.85;;;1.60;;
41627;SDS011;27321;50.816;6.054;2022-12-29T20:25:17;5.33;;;1.77;;
41627;SDS011;27321;50.816;6.054;2022-12-29T20:28:18;7.47;;;1.40;;
41627;SDS011;27321;50.816;6.054;2022-12-29T20:31:24;11.30;;;1.65;;
41627;SDS011;27321;50.816;6.054;2022-12-29T20:34:32;7.80;;;1.63;;
41627;SDS011;27321;50.816;6.054;2022-12-29T20:37:33;11.55;;;1.40;;
41627;SDS011;27321;50.816;6.054;2022-12-29T20:40:35;4.20;;;1.27;;
41627;SDS011;27321;50.816;6.054;2022-12-29T20:43:36;2.60;;;1.10;;
41627;SDS011;27321;50.816;6.054;2022-12-29T20:46:37;3.23;;;1.13;;
41627;SDS011;27321;50.816;6.054;2022-12-29T20:52:40;6.13;;;1.70;;
41627;SDS011;27321;50.816;6.054;2022-12-29T20:55:41;7.75;;;1.58;;
41627;SDS011;27321;50.816;6.054;2022-12-29T20:58:42;5.93;;;1.50;;
41627;SDS011;27321;50.816;6.054;2022-12-29T21:01:44;4.82;;;1.55;;